createdAt,value
2022-10-01T00:02:16.438Z,16.42
2022-10-01T00:04:43.228Z,15.40
2022-10-01T00:07:15.185Z,16.02
2022-10-01T00:09:42.370Z,15.52
2022-10-01T00:12:09.031Z,18.55
2022-10-01T00:14:41.928Z,14.48
2022-10-01T00:17:08.582Z,17.98
2022-10-01T00:19:35.125Z,14.93
2022-10-01T00:22:02.201Z,20.13
2022-10-01T00:24:28.983Z,17.08
2022-10-01T00:26:55.615Z,18.30
2022-10-01T00:29:22.664Z,15.75
2022-10-01T00:31:49.568Z,15.82
2022-10-01T00:34:16.248Z,17.70
2022-10-01T00:36:43.015Z,18.88
2022-10-01T00:39:12.011Z,18.38
2022-10-01T00:41:39.102Z,19.02
2022-10-01T00:44:35.822Z,16.38
2022-10-01T00:47:25.168Z,17.77
2022-10-01T00:49:59.341Z,21.15
2022-10-01T00:52:30.771Z,32.17
2022-10-01T00:55:20.978Z,18.10
2022-10-01T00:57:49.789Z,16.23
2022-10-01T01:00:18.330Z,18.15
2022-10-01T01:02:45.364Z,18.55
2022-10-01T01:05:13.796Z,16.63
2022-10-01T01:07:47.470Z,17.65
2022-10-01T01:10:17.203Z,16.85
2022-10-01T01:13:01.969Z,17.45
2022-10-01T01:15:47.123Z,16.42
2022-10-01T01:18:31.358Z,25.10
2022-10-01T01:21:08.273Z,20.05
2022-10-01T01:23:53.854Z,18.10
2022-10-01T01:26:32.317Z,18.65
2022-10-01T01:29:06.720Z,19.55
2022-10-01T01:31:40.439Z,18.67
2022-10-01T01:34:12.410Z,21.17
2022-10-01T01:36:45.284Z,19.00
2022-10-01T01:39:15.273Z,19.50
2022-10-01T01:41:50.228Z,18.45
2022-10-01T01:44:22.975Z,19.17
2022-10-01T01:46:52.648Z,20.80
2022-10-01T01:49:21.012Z,21.67
2022-10-01T01:52:14.378Z,19.50
2022-10-01T01:54:41.591Z,24.10
2022-10-01T01:57:09.029Z,21.52
2022-10-01T01:59:36.634Z,22.27
2022-10-01T02:02:06.849Z,20.83
2022-10-01T02:04:46.210Z,21.02
2022-10-01T02:07:30.968Z,20.60
2022-10-01T02:10:10.396Z,25.05
2022-10-01T02:13:01.997Z,22.15
2022-10-01T02:15:37.366Z,25.02
2022-10-01T02:18:12.974Z,24.95
2022-10-01T02:20:46.150Z,23.38
2022-10-01T02:23:17.953Z,25.60
2022-10-01T02:25:51.024Z,24.23
2022-10-01T02:28:22.988Z,21.58
2022-10-01T02:30:53.439Z,24.30
2022-10-01T02:33:32.276Z,23.23
2022-10-01T02:36:01.284Z,21.80
2022-10-01T02:38:29.589Z,22.80
2022-10-01T02:41:01.049Z,24.33
2022-10-01T02:43:37.339Z,24.67
2022-10-01T02:46:15.876Z,24.65
2022-10-01T02:48:43.141Z,27.10
2022-10-01T02:51:26.004Z,25.70
2022-10-01T02:53:59.587Z,24.52
2022-10-01T02:56:49.077Z,24.73
2022-10-01T02:59:16.010Z,26.10
2022-10-01T03:01:42.828Z,25.45
2022-10-01T03:04:09.580Z,27.75
2022-10-01T03:06:36.310Z,26.27
2022-10-01T03:09:03.100Z,26.27
2022-10-01T03:11:29.854Z,26.98
2022-10-01T03:13:57.013Z,28.48
2022-10-01T03:16:24.829Z,37.22
2022-10-01T03:18:51.578Z,27.35
2022-10-01T03:21:18.166Z,27.08
2022-10-01T03:23:45.557Z,26.77
2022-10-01T03:26:12.334Z,25.40
2022-10-01T03:28:38.952Z,29.13
2022-10-01T03:31:10.455Z,24.60
2022-10-01T03:33:37.480Z,28.52
2022-10-01T03:36:05.110Z,23.35
2022-10-01T03:38:32.289Z,25.80
2022-10-01T03:41:01.363Z,27.55
2022-10-01T03:43:29.117Z,24.60
2022-10-01T03:45:56.769Z,24.67
2022-10-01T03:48:24.609Z,25.13
2022-10-01T03:50:56.131Z,24.30
2022-10-01T03:53:22.975Z,23.27
2022-10-01T03:55:50.393Z,24.50
2022-10-01T03:58:19.212Z,28.33
2022-10-01T04:00:47.578Z,27.00
2022-10-01T04:03:15.524Z,24.98
2022-10-01T04:05:43.712Z,23.73
2022-10-01T04:08:10.607Z,26.30
2022-10-01T04:10:37.640Z,25.45
2022-10-01T04:13:05.595Z,28.42
2022-10-01T04:15:32.932Z,26.88
2022-10-01T04:18:00.151Z,25.02
2022-10-01T04:20:26.716Z,26.73
2022-10-01T04:22:53.369Z,27.95
2022-10-01T04:25:20.038Z,29.75
2022-10-01T04:28:07.229Z,26.45
2022-10-01T04:30:39.772Z,25.70
2022-10-01T04:33:07.430Z,27.75
2022-10-01T04:35:34.092Z,26.13
2022-10-01T04:38:03.526Z,27.05
2022-10-01T04:40:31.744Z,24.45
2022-10-01T04:42:58.353Z,26.73
2022-10-01T04:45:25.043Z,26.73
2022-10-01T04:47:54.257Z,25.33
2022-10-01T04:50:22.059Z,27.30
2022-10-01T04:52:48.965Z,27.75
2022-10-01T04:55:17.154Z,26.02
2022-10-01T04:57:44.121Z,29.17
2022-10-01T05:00:17.108Z,26.35
2022-10-01T05:02:45.516Z,26.13
2022-10-01T05:05:12.060Z,26.30
2022-10-01T05:07:39.758Z,27.67
2022-10-01T05:10:08.297Z,25.65
2022-10-01T05:12:35.027Z,27.85
2022-10-01T05:15:03.063Z,27.70
2022-10-01T05:17:32.985Z,27.55
2022-10-01T05:19:59.478Z,25.65
2022-10-01T05:22:26.136Z,27.58
2022-10-01T05:24:52.721Z,30.42
2022-10-01T05:27:19.610Z,28.48
2022-10-01T05:29:49.155Z,29.42
2022-10-01T05:32:15.759Z,27.42
2022-10-01T05:34:42.295Z,28.15
2022-10-01T05:37:09.439Z,28.48
2022-10-01T05:39:35.881Z,29.52
2022-10-01T05:42:06.515Z,27.45
2022-10-01T05:44:37.791Z,28.73
2022-10-01T05:47:07.858Z,28.75
2022-10-01T05:49:34.539Z,28.33
2022-10-01T05:52:01.397Z,28.63
2022-10-01T05:54:30.922Z,26.90
2022-10-01T05:56:57.484Z,27.95
2022-10-01T05:59:28.483Z,25.40
2022-10-01T06:01:58.079Z,28.80
2022-10-01T06:04:24.714Z,27.10
2022-10-01T06:06:51.373Z,28.00
2022-10-01T06:09:18.111Z,29.77
2022-10-01T06:11:45.336Z,34.88
2022-10-01T06:14:12.412Z,28.38
2022-10-01T06:16:38.959Z,28.85
2022-10-01T06:19:05.607Z,28.73
2022-10-01T06:21:32.609Z,25.23
2022-10-01T06:23:59.319Z,23.90
2022-10-01T06:26:26.034Z,27.67
2022-10-01T06:28:52.831Z,26.92
2022-10-01T06:31:21.115Z,23.98
2022-10-01T06:33:47.767Z,24.73
2022-10-01T06:36:14.215Z,26.35
2022-10-01T06:38:40.639Z,24.60
2022-10-01T06:41:07.106Z,27.38
2022-10-01T06:43:33.907Z,26.15
2022-10-01T06:46:05.094Z,30.85
2022-10-01T06:48:32.425Z,25.15
2022-10-01T06:50:59.793Z,23.58
2022-10-01T06:53:28.492Z,23.40
2022-10-01T06:55:55.714Z,24.40
2022-10-01T06:58:26.367Z,21.77
2022-10-01T07:00:58.636Z,29.17
2022-10-01T07:03:25.903Z,25.58
2022-10-01T07:05:52.775Z,22.10
2022-10-01T07:08:19.663Z,22.08
2022-10-01T07:10:46.259Z,23.30
2022-10-01T07:13:18.029Z,21.25
2022-10-01T07:15:45.681Z,21.80
2022-10-01T07:18:13.507Z,22.25
2022-10-01T07:20:41.419Z,22.70
2022-10-01T07:23:11.913Z,20.40
2022-10-01T07:25:40.113Z,24.20
2022-10-01T07:28:16.089Z,22.35
2022-10-01T07:30:48.029Z,22.60
2022-10-01T07:33:18.730Z,23.08
2022-10-01T07:35:47.756Z,21.65
2022-10-01T07:38:14.346Z,20.25
2022-10-01T07:40:41.606Z,19.73
2022-10-01T07:43:08.561Z,20.67
2022-10-01T07:45:35.277Z,22.20
2022-10-01T07:48:02.933Z,22.65
2022-10-01T07:50:33.245Z,20.42
2022-10-01T07:53:00.127Z,23.77
2022-10-01T07:55:30.646Z,24.70
2022-10-01T07:58:01.515Z,19.77
2022-10-01T08:02:56.278Z,20.20
2022-10-01T08:05:32.894Z,21.52
2022-10-01T08:08:04.088Z,23.63
2022-10-01T08:10:31.201Z,19.75
2022-10-01T08:13:05.479Z,22.67
2022-10-01T08:15:32.194Z,22.27
2022-10-01T08:18:02.212Z,24.00
2022-10-01T08:20:29.770Z,24.42
2022-10-01T08:23:07.864Z,22.20
2022-10-01T08:25:35.379Z,23.13
2022-10-01T08:28:02.377Z,21.60
2022-10-01T08:30:30.568Z,22.60
2022-10-01T08:32:58.853Z,22.80
2022-10-01T08:35:30.837Z,25.95
2022-10-01T08:38:07.037Z,23.55
2022-10-01T08:40:40.861Z,22.98
2022-10-01T08:43:22.592Z,21.05
2022-10-01T08:45:55.572Z,20.65
2022-10-01T08:48:45.476Z,22.33
2022-10-01T08:51:40.113Z,23.77
2022-10-01T08:54:29.108Z,20.58
2022-10-01T08:56:59.920Z,20.52
2022-10-01T08:59:47.357Z,21.23
2022-10-01T09:02:28.325Z,19.20
2022-10-01T09:05:07.004Z,20.60
2022-10-01T09:07:49.730Z,17.17
2022-10-01T09:10:48.448Z,19.80
2022-10-01T09:13:27.418Z,16.33
2022-10-01T09:16:01.731Z,19.23
2022-10-01T09:18:54.765Z,17.10
2022-10-01T09:21:55.688Z,17.27
2022-10-01T09:24:45.268Z,16.15
2022-10-01T09:27:16.136Z,15.63
2022-10-01T09:29:56.670Z,17.77
2022-10-01T09:32:27.199Z,15.32
2022-10-01T09:34:55.776Z,16.02
2022-10-01T09:37:29.210Z,16.05
2022-10-01T09:40:15.802Z,17.75
2022-10-01T09:42:45.854Z,14.88
2022-10-01T09:45:15.244Z,17.30
2022-10-01T09:47:46.432Z,15.00
2022-10-01T09:50:25.333Z,13.95
2022-10-01T09:53:05.305Z,18.75
2022-10-01T09:55:43.388Z,14.20
2022-10-01T09:58:21.594Z,15.10
2022-10-01T10:00:51.637Z,13.82
2022-10-01T10:03:28.834Z,15.50
2022-10-01T10:05:56.184Z,13.57
2022-10-01T10:08:29.051Z,15.98
2022-10-01T10:11:01.752Z,14.80
2022-10-01T10:13:41.424Z,15.05
2022-10-01T10:16:26.611Z,16.10
2022-10-01T10:19:16.769Z,14.45
2022-10-01T10:21:52.987Z,16.38
2022-10-01T10:24:32.673Z,14.13
2022-10-01T10:27:07.050Z,11.75
2022-10-01T10:29:35.923Z,11.50
2022-10-01T10:32:24.735Z,13.35
2022-10-01T10:34:58.877Z,13.30
2022-10-01T10:39:58.293Z,10.80
2022-10-01T10:42:26.013Z,10.05
2022-10-01T10:44:55.901Z,11.40
2022-10-01T10:47:24.407Z,10.68
2022-10-01T10:50:00.766Z,9.88
2022-10-01T10:52:30.524Z,10.15
2022-10-01T10:54:59.437Z,11.05
2022-10-01T10:57:34.425Z,10.50
2022-10-01T11:00:05.215Z,11.30
2022-10-01T11:02:33.195Z,8.60
2022-10-01T11:05:17.420Z,10.60
2022-10-01T11:07:46.895Z,8.30
2022-10-01T11:10:37.165Z,7.53
2022-10-01T11:13:09.676Z,8.50
2022-10-01T11:15:36.585Z,7.85
2022-10-01T11:18:40.441Z,9.60
2022-10-01T11:21:23.519Z,6.78
2022-10-01T11:24:11.738Z,7.63
2022-10-01T11:27:11.338Z,7.10
2022-10-01T11:29:58.615Z,7.65
2022-10-01T11:32:46.089Z,6.20
2022-10-01T11:35:15.711Z,6.15
2022-10-01T11:37:50.758Z,4.90
2022-10-01T11:40:36.776Z,4.80
2022-10-01T11:43:21.347Z,4.90
2022-10-01T11:45:54.511Z,5.03
2022-10-01T11:48:41.561Z,9.45
2022-10-01T11:51:18.093Z,4.88
2022-10-01T11:53:53.719Z,4.32
2022-10-01T11:56:50.185Z,4.82
2022-10-01T11:59:50.120Z,4.75
2022-10-01T12:02:31.793Z,5.47
2022-10-01T12:05:10.375Z,5.47
2022-10-01T12:08:07.177Z,4.93
2022-10-01T12:11:06.725Z,6.03
2022-10-01T12:13:42.281Z,4.30
2022-10-01T12:16:19.967Z,5.50
2022-10-01T12:19:31.869Z,4.55
2022-10-01T12:22:33.889Z,5.05
2022-10-01T12:25:00.549Z,4.25
2022-10-01T12:27:55.342Z,5.28
2022-10-01T12:30:25.901Z,3.83
2022-10-01T12:32:55.282Z,4.07
2022-10-01T12:35:41.224Z,3.70
2022-10-01T12:38:35.749Z,4.45
2022-10-01T12:41:45.715Z,3.28
2022-10-01T12:44:50.391Z,4.45
2022-10-01T12:47:30.046Z,4.38
2022-10-01T12:50:09.882Z,4.25
2022-10-01T12:52:45.384Z,4.43
2022-10-01T12:55:49.737Z,5.18
2022-10-01T12:58:56.401Z,3.08
2022-10-01T13:01:36.350Z,3.08
2022-10-01T13:04:29.133Z,3.20
2022-10-01T13:07:08.093Z,4.15
2022-10-01T13:10:06.619Z,2.78
2022-10-01T13:13:06.505Z,3.47
2022-10-01T13:15:42.206Z,9.38
2022-10-01T13:18:12.072Z,2.75
2022-10-01T13:20:57.686Z,3.85
2022-10-01T13:24:11.923Z,3.05
2022-10-01T13:27:04.458Z,2.53
2022-10-01T13:29:43.550Z,4.25
2022-10-01T13:32:30.587Z,3.00
2022-10-01T13:34:59.644Z,3.33
2022-10-01T13:37:36.781Z,2.85
2022-10-01T13:40:04.462Z,2.65
2022-10-01T13:42:45.669Z,3.63
2022-10-01T13:45:38.890Z,2.42
2022-10-01T13:48:12.624Z,2.38
2022-10-01T13:50:42.409Z,2.53
2022-10-01T13:53:22.438Z,4.30
2022-10-01T13:55:50.784Z,4.82
2022-10-01T13:58:26.238Z,3.00
2022-10-01T14:01:00.804Z,2.55
2022-10-01T14:03:58.773Z,2.30
2022-10-01T14:06:39.901Z,3.42
2022-10-01T14:09:15.479Z,2.40
2022-10-01T14:12:26.511Z,3.08
2022-10-01T14:15:15.916Z,2.85
2022-10-01T14:17:45.027Z,2.45
2022-10-01T14:20:24.785Z,2.58
2022-10-01T14:23:12.747Z,2.47
2022-10-01T14:26:07.831Z,3.20
2022-10-01T14:28:44.630Z,1.80
2022-10-01T14:31:39.636Z,2.60
2022-10-01T14:34:28.182Z,2.60
2022-10-01T14:36:56.714Z,2.28
2022-10-01T14:39:29.528Z,2.60
2022-10-01T14:41:58.471Z,3.45
2022-10-01T14:44:37.718Z,2.75
2022-10-01T14:47:22.792Z,1.80
2022-10-01T14:49:51.921Z,2.00
2022-10-01T14:52:21.245Z,2.17
2022-10-01T14:55:02.264Z,2.75
2022-10-01T14:57:41.976Z,2.72
2022-10-01T15:00:15.956Z,2.90
2022-10-01T15:02:48.012Z,4.15
2022-10-01T15:05:29.700Z,2.65
2022-10-01T15:07:56.790Z,3.45
2022-10-01T15:10:28.197Z,3.20
2022-10-01T15:12:55.760Z,2.78
2022-10-01T15:15:33.819Z,2.45
2022-10-01T15:18:07.665Z,3.90
2022-10-01T15:20:38.299Z,2.83
2022-10-01T15:23:06.138Z,3.97
2022-10-01T15:25:33.898Z,7.15
2022-10-01T15:28:01.034Z,3.50
2022-10-01T15:30:28.689Z,3.60
2022-10-01T15:32:57.088Z,2.92
2022-10-01T15:35:25.458Z,5.43
2022-10-01T15:37:53.946Z,3.45
2022-10-01T15:40:29.893Z,3.45
2022-10-01T15:43:12.079Z,4.00
2022-10-01T15:45:39.018Z,3.42
2022-10-01T15:48:19.455Z,2.85
2022-10-01T15:51:00.277Z,3.17
2022-10-01T15:53:28.738Z,5.00
2022-10-01T15:55:58.076Z,3.55
2022-10-01T15:58:35.345Z,3.10
2022-10-01T16:03:52.689Z,4.30
2022-10-01T16:06:35.342Z,3.95
2022-10-01T16:09:25.583Z,3.17
2022-10-01T16:11:54.826Z,4.53
2022-10-01T16:14:43.588Z,3.67
2022-10-01T16:17:19.763Z,5.05
2022-10-01T16:19:49.308Z,4.38
2022-10-01T16:22:38.030Z,5.28
2022-10-01T16:25:23.175Z,4.15
2022-10-01T16:28:05.639Z,4.65
2022-10-01T16:30:38.870Z,6.15
2022-10-01T16:33:06.150Z,3.80
2022-10-01T16:35:35.940Z,4.72
2022-10-01T16:38:06.808Z,3.60
2022-10-01T16:43:09.930Z,3.92
2022-10-01T16:45:42.831Z,3.53
2022-10-01T16:48:22.551Z,3.53
2022-10-01T16:50:49.352Z,2.78
2022-10-01T16:53:18.561Z,3.55
2022-10-01T16:55:46.185Z,4.03
2022-10-01T16:58:13.692Z,3.45
2022-10-01T17:00:40.911Z,3.80
2022-10-01T17:03:15.571Z,2.85
2022-10-01T17:05:42.417Z,4.05
2022-10-01T17:08:12.903Z,5.07
2022-10-01T17:10:45.864Z,2.50
2022-10-01T17:13:13.453Z,3.80
2022-10-01T17:15:41.170Z,4.13
2022-10-01T17:18:09.883Z,5.22
2022-10-01T17:20:38.343Z,3.40
2022-10-01T17:23:10.082Z,2.78
2022-10-01T17:25:38.398Z,4.65
2022-10-01T17:28:08.648Z,5.72
2022-10-01T17:30:35.387Z,4.25
2022-10-01T17:33:02.058Z,3.25
2022-10-01T17:35:31.099Z,3.15
2022-10-01T17:37:58.577Z,3.55
2022-10-01T17:40:25.526Z,2.70
2022-10-01T17:42:52.310Z,5.65
2022-10-01T17:45:19.211Z,17.27
2022-10-01T17:47:47.948Z,4.07
2022-10-01T17:50:15.646Z,3.50
2022-10-01T17:55:23.929Z,4.45
2022-10-01T17:57:51.022Z,3.92
2022-10-01T18:00:18.340Z,3.20
2022-10-01T18:02:45.451Z,2.20
2022-10-01T18:05:14.908Z,2.13
2022-10-01T18:07:42.904Z,4.15
2022-10-01T18:10:12.789Z,4.13
2022-10-01T18:12:40.304Z,4.15
2022-10-01T18:15:07.578Z,7.68
2022-10-01T18:17:36.681Z,5.47
2022-10-01T18:20:08.208Z,6.60
2022-10-01T18:22:36.395Z,3.25
2022-10-01T18:25:07.050Z,3.60
2022-10-01T18:27:33.774Z,3.17
2022-10-01T18:30:00.445Z,11.10
2022-10-01T18:32:37.728Z,11.60
2022-10-01T18:37:52.078Z,7.03
2022-10-01T18:40:30.655Z,4.88
2022-10-01T18:43:13.376Z,2.92
2022-10-01T18:46:07.767Z,5.28
2022-10-01T18:48:48.298Z,4.55
2022-10-01T18:51:30.731Z,15.80
2022-10-01T18:54:15.119Z,2.58
2022-10-01T18:56:51.941Z,2.65
2022-10-01T18:59:52.670Z,3.88
2022-10-01T19:02:41.350Z,3.83
2022-10-01T19:05:10.390Z,3.33
2022-10-01T19:08:17.591Z,2.28
2022-10-01T19:11:02.992Z,3.45
2022-10-01T19:13:53.806Z,3.25
2022-10-01T19:16:42.195Z,3.13
2022-10-01T19:19:22.309Z,3.85
2022-10-01T19:22:14.735Z,3.88
2022-10-01T19:24:47.795Z,3.83
2022-10-01T19:27:36.114Z,4.40
2022-10-01T19:30:15.697Z,3.95
2022-10-01T19:33:07.558Z,4.38
2022-10-01T19:35:44.180Z,4.93
2022-10-01T19:38:18.634Z,3.53
2022-10-01T19:40:59.263Z,3.17
2022-10-01T19:43:57.610Z,5.13
2022-10-01T19:46:32.163Z,3.17
2022-10-01T19:49:14.078Z,2.70
2022-10-01T19:52:00.179Z,8.68
2022-10-01T19:54:35.040Z,5.32
2022-10-01T19:57:28.416Z,3.65
2022-10-01T20:00:08.989Z,3.60
2022-10-01T20:02:42.715Z,3.20
2022-10-01T20:05:28.605Z,4.15
2022-10-01T20:08:16.546Z,5.20
2022-10-01T20:11:05.085Z,4.50
2022-10-01T20:14:00.876Z,2.65
2022-10-01T20:16:38.373Z,3.92
2022-10-01T20:19:24.827Z,4.55
2022-10-01T20:22:06.293Z,4.47
2022-10-01T20:24:51.656Z,5.47
2022-10-01T20:27:33.380Z,4.50
2022-10-01T20:30:14.782Z,6.70
2022-10-01T20:32:59.910Z,4.30
2022-10-01T20:35:29.967Z,3.70
2022-10-01T20:38:22.466Z,3.92
2022-10-01T20:40:54.794Z,5.97
2022-10-01T20:43:31.723Z,4.13
2022-10-01T20:46:06.401Z,6.40
2022-10-01T20:48:39.493Z,5.90
2022-10-01T20:51:12.485Z,4.90
2022-10-01T20:53:49.085Z,5.72
2022-10-01T20:56:18.587Z,4.97
2022-10-01T20:59:11.850Z,6.38
2022-10-01T21:01:48.529Z,5.57
2022-10-01T21:04:23.801Z,4.10
2022-10-01T21:07:01.333Z,10.63
2022-10-01T21:09:40.981Z,3.75
2022-10-01T21:12:19.080Z,3.50
2022-10-01T21:14:55.585Z,4.22
2022-10-01T21:17:43.518Z,4.78
2022-10-01T21:20:26.418Z,2.72
2022-10-01T21:23:10.936Z,5.80
2022-10-01T21:25:58.575Z,4.57
2022-10-01T21:28:56.340Z,4.38
2022-10-01T21:31:47.592Z,2.78
2022-10-01T21:34:25.300Z,3.72
2022-10-01T21:37:01.600Z,4.25
2022-10-01T21:39:36.990Z,8.27
2022-10-01T21:42:15.205Z,4.40
2022-10-01T21:44:48.320Z,4.82
2022-10-01T21:47:39.094Z,5.28
2022-10-01T21:50:21.315Z,5.20
2022-10-01T21:53:16.738Z,7.85
2022-10-01T21:56:00.880Z,5.70
2022-10-01T21:58:55.666Z,3.38
2022-10-01T22:01:34.082Z,6.82
2022-10-01T22:04:18.108Z,7.18
2022-10-01T22:06:58.469Z,5.40
2022-10-01T22:09:31.433Z,10.30
2022-10-01T22:12:02.209Z,11.00
2022-10-01T22:16:59.101Z,7.43
2022-10-01T22:19:38.949Z,8.13
2022-10-01T22:22:13.186Z,10.73
2022-10-01T22:24:49.662Z,7.35
2022-10-01T22:27:33.208Z,6.05
2022-10-01T22:30:08.877Z,6.72
2022-10-01T22:32:44.285Z,7.93
2022-10-01T22:35:34.006Z,7.50
2022-10-01T22:38:12.933Z,8.00
2022-10-01T22:40:44.407Z,4.78
2022-10-01T22:43:15.910Z,15.32
2022-10-01T22:45:48.756Z,10.30
2022-10-01T22:48:21.423Z,8.45
2022-10-01T22:51:12.186Z,6.95
2022-10-01T22:53:59.535Z,7.20
2022-10-01T22:56:41.583Z,7.63
2022-10-01T22:59:49.058Z,6.20
2022-10-01T23:02:32.572Z,10.48
2022-10-01T23:05:41.174Z,6.35
2022-10-01T23:08:28.611Z,6.55
2022-10-01T23:11:40.232Z,20.05
2022-10-01T23:14:20.020Z,11.20
2022-10-01T23:17:06.256Z,11.55
2022-10-01T23:19:50.399Z,10.57
2022-10-01T23:22:41.634Z,10.93
2022-10-01T23:25:29.950Z,11.40
2022-10-01T23:28:25.566Z,18.92
2022-10-01T23:31:07.053Z,12.07
2022-10-01T23:33:57.383Z,6.85
2022-10-01T23:36:56.819Z,10.10
2022-10-01T23:39:28.424Z,11.68
2022-10-01T23:42:15.271Z,22.30
2022-10-01T23:45:11.018Z,17.02
2022-10-01T23:48:05.500Z,13.80
2022-10-01T23:50:38.035Z,10.20
2022-10-01T23:53:14.573Z,18.98
2022-10-01T23:56:09.586Z,13.80
2022-10-01T23:58:45.270Z,13.88
